Spivey, Kansas
Current Conditions -  °F | °C
As of 7:15 AM on Thursday 18 Dec 2014 (Local Time) from KPTT Reporting Station
Haze Haze  
Wind Chill: 22°   Ceiling: 100
Heat Index: 28°   Visibility: 0.75mi
Dew Point: 28°   Wind: 6mph
Humidity: 100%   Direction: 50°NE
Pressure: 30.14"   Gusts: NA
Location:  37.45°N, 98.16°W
Report Text: KPTT 181315Z AUTO 05005KT 3/4SM BR OVC001 M02/M02 A3014 RMK AO2
Loading
Personal Weather Stations






























Interactive Weather Map New forecast layout! Learn more

10-Day Weather Forecast

Advertisements
Track Severe Weather on mobile